Garberville, California
Current Conditions -  °F | °C
As of 4:35 AM on Wednesday 26 Nov 2014 (Local Time) from KFOT Reporting Station
Clear Clear  
Wind Chill: 42°   Ceiling: Unl
Heat Index: 46°   Visibility: 10mi
Dew Point: 46°   Wind: 9mph
Humidity: 100%   Direction: 150°SSE
Pressure: 30.26"   Gusts: NA
Location:  40.1°N, 123.8°W
Report Text: KFOT 261235Z AUTO 15008KT 10SM CLR 08/08 A3026 RMK AO1
Loading
Personal Weather Stations






























Interactive Weather Map New forecast layout! Learn more

10-Day Weather Forecast

Advertisements
Track Severe Weather on mobile